sensor_id;sensor_type;location;lat;lon;timestamp;P1;durP1;ratioP1;P2;durP2;ratioP2
12900;SDS011;6518;50.930;5.344;2023-08-21T00:01:33;5.68;;;2.17;;
12900;SDS011;6518;50.930;5.344;2023-08-21T00:03:59;6.78;;;2.20;;
12900;SDS011;6518;50.930;5.344;2023-08-21T00:06:26;5.28;;;1.90;;
12900;SDS011;6518;50.930;5.344;2023-08-21T00:08:53;5.68;;;2.30;;
12900;SDS011;6518;50.930;5.344;2023-08-21T00:11:20;4.95;;;2.30;;
12900;SDS011;6518;50.930;5.344;2023-08-21T00:13:47;5.60;;;1.80;;
12900;SDS011;6518;50.930;5.344;2023-08-21T00:16:16;5.35;;;1.95;;
12900;SDS011;6518;50.930;5.344;2023-08-21T00:18:43;6.43;;;2.20;;
12900;SDS011;6518;50.930;5.344;2023-08-21T00:21:10;7.45;;;2.38;;
12900;SDS011;6518;50.930;5.344;2023-08-21T00:23:37;9.85;;;2.42;;
12900;SDS011;6518;50.930;5.344;2023-08-21T00:26:04;8.13;;;2.47;;
12900;SDS011;6518;50.930;5.344;2023-08-21T00:28:31;5.22;;;2.10;;
12900;SDS011;6518;50.930;5.344;2023-08-21T00:31:00;9.25;;;2.33;;
12900;SDS011;6518;50.930;5.344;2023-08-21T00:33:30;6.70;;;2.10;;
12900;SDS011;6518;50.930;5.344;2023-08-21T00:35:57;6.32;;;2.13;;
12900;SDS011;6518;50.930;5.344;2023-08-21T00:38:24;8.00;;;2.35;;
12900;SDS011;6518;50.930;5.344;2023-08-21T00:40:51;4.70;;;2.28;;
12900;SDS011;6518;50.930;5.344;2023-08-21T00:43:18;6.43;;;2.00;;
12900;SDS011;6518;50.930;5.344;2023-08-21T00:45:46;4.90;;;2.00;;
12900;SDS011;6518;50.930;5.344;2023-08-21T00:48:13;15.88;;;2.55;;
12900;SDS011;6518;50.930;5.344;2023-08-21T00:50:42;10.73;;;2.40;;
12900;SDS011;6518;50.930;5.344;2023-08-21T00:53:10;6.07;;;2.17;;
12900;SDS011;6518;50.930;5.344;2023-08-21T00:55:38;8.77;;;2.47;;
12900;SDS011;6518;50.930;5.344;2023-08-21T00:58:06;10.02;;;3.20;;
12900;SDS011;6518;50.930;5.344;2023-08-21T01:00:35;8.65;;;3.65;;
12900;SDS011;6518;50.930;5.344;2023-08-21T01:03:03;11.85;;;4.68;;
12900;SDS011;6518;50.930;5.344;2023-08-21T01:05:30;17.35;;;4.53;;
12900;SDS011;6518;50.930;5.344;2023-08-21T01:07:59;8.60;;;3.85;;
12900;SDS011;6518;50.930;5.344;2023-08-21T01:13:20;7.40;;;3.30;;
12900;SDS011;6518;50.930;5.344;2023-08-21T01:15:53;7.30;;;3.30;;
12900;SDS011;6518;50.930;5.344;2023-08-21T01:18:22;8.30;;;3.50;;
12900;SDS011;6518;50.930;5.344;2023-08-21T01:20:49;10.10;;;3.75;;
12900;SDS011;6518;50.930;5.344;2023-08-21T01:23:31;8.95;;;3.50;;
12900;SDS011;6518;50.930;5.344;2023-08-21T01:25:59;10.02;;;4.47;;
12900;SDS011;6518;50.930;5.344;2023-08-21T01:28:25;7.65;;;4.35;;
12900;SDS011;6518;50.930;5.344;2023-08-21T01:30:54;8.63;;;4.30;;
12900;SDS011;6518;50.930;5.344;2023-08-21T01:33:27;11.55;;;4.28;;
12900;SDS011;6518;50.930;5.344;2023-08-21T01:35:57;6.05;;;2.88;;
12900;SDS011;6518;50.930;5.344;2023-08-21T01:38:29;8.55;;;2.55;;
12900;SDS011;6518;50.930;5.344;2023-08-21T01:40:57;6.13;;;2.58;;
12900;SDS011;6518;50.930;5.344;2023-08-21T01:43:24;6.47;;;1.98;;
12900;SDS011;6518;50.930;5.344;2023-08-21T01:45:51;5.10;;;2.08;;
12900;SDS011;6518;50.930;5.344;2023-08-21T01:48:18;4.65;;;2.22;;
12900;SDS011;6518;50.930;5.344;2023-08-21T01:50:45;6.25;;;2.30;;
12900;SDS011;6518;50.930;5.344;2023-08-21T01:53:12;5.78;;;1.88;;
12900;SDS011;6518;50.930;5.344;2023-08-21T01:55:39;6.75;;;2.10;;
12900;SDS011;6518;50.930;5.344;2023-08-21T01:58:07;6.93;;;2.22;;
12900;SDS011;6518;50.930;5.344;2023-08-21T02:00:34;9.25;;;2.85;;
12900;SDS011;6518;50.930;5.344;2023-08-21T02:03:01;6.20;;;2.10;;
12900;SDS011;6518;50.930;5.344;2023-08-21T02:05:28;6.03;;;2.03;;
12900;SDS011;6518;50.930;5.344;2023-08-21T02:07:55;4.65;;;1.98;;
12900;SDS011;6518;50.930;5.344;2023-08-21T02:10:21;6.40;;;2.00;;
12900;SDS011;6518;50.930;5.344;2023-08-21T02:12:48;5.05;;;2.05;;
12900;SDS011;6518;50.930;5.344;2023-08-21T02:15:17;6.35;;;2.00;;
12900;SDS011;6518;50.930;5.344;2023-08-21T02:17:47;7.18;;;4.00;;
12900;SDS011;6518;50.930;5.344;2023-08-21T02:20:14;7.10;;;2.80;;
12900;SDS011;6518;50.930;5.344;2023-08-21T02:22:41;12.05;;;4.80;;
12900;SDS011;6518;50.930;5.344;2023-08-21T02:25:08;5.28;;;2.05;;
12900;SDS011;6518;50.930;5.344;2023-08-21T02:27:35;6.63;;;2.00;;
12900;SDS011;6518;50.930;5.344;2023-08-21T02:30:02;6.93;;;2.10;;
12900;SDS011;6518;50.930;5.344;2023-08-21T02:32:31;7.72;;;2.40;;
12900;SDS011;6518;50.930;5.344;2023-08-21T02:34:57;4.07;;;1.80;;
12900;SDS011;6518;50.930;5.344;2023-08-21T02:37:24;5.97;;;2.10;;
12900;SDS011;6518;50.930;5.344;2023-08-21T02:39:51;8.05;;;2.10;;
12900;SDS011;6518;50.930;5.344;2023-08-21T02:42:18;5.25;;;2.20;;
12900;SDS011;6518;50.930;5.344;2023-08-21T02:44:45;7.03;;;2.42;;
12900;SDS011;6518;50.930;5.344;2023-08-21T02:47:12;7.03;;;2.55;;
12900;SDS011;6518;50.930;5.344;2023-08-21T02:49:40;6.78;;;2.58;;
12900;SDS011;6518;50.930;5.344;2023-08-21T02:52:07;7.03;;;2.20;;
12900;SDS011;6518;50.930;5.344;2023-08-21T02:54:34;5.80;;;2.03;;
12900;SDS011;6518;50.930;5.344;2023-08-21T02:57:01;7.35;;;2.47;;
12900;SDS011;6518;50.930;5.344;2023-08-21T02:59:28;10.13;;;2.45;;
12900;SDS011;6518;50.930;5.344;2023-08-21T03:01:55;5.28;;;2.15;;
12900;SDS011;6518;50.930;5.344;2023-08-21T03:04:22;8.88;;;2.20;;
12900;SDS011;6518;50.930;5.344;2023-08-21T03:06:50;8.55;;;2.88;;
12900;SDS011;6518;50.930;5.344;2023-08-21T03:09:17;6.53;;;2.42;;
12900;SDS011;6518;50.930;5.344;2023-08-21T03:11:44;11.40;;;2.17;;
12900;SDS011;6518;50.930;5.344;2023-08-21T03:14:11;6.53;;;2.40;;
12900;SDS011;6518;50.930;5.344;2023-08-21T03:16:38;4.25;;;2.05;;
12900;SDS011;6518;50.930;5.344;2023-08-21T03:19:04;6.03;;;2.65;;
12900;SDS011;6518;50.930;5.344;2023-08-21T03:21:32;7.88;;;2.45;;
12900;SDS011;6518;50.930;5.344;2023-08-21T03:24:00;7.72;;;2.72;;
12900;SDS011;6518;50.930;5.344;2023-08-21T03:26:27;6.53;;;2.60;;
12900;SDS011;6518;50.930;5.344;2023-08-21T03:28:54;6.88;;;1.92;;
12900;SDS011;6518;50.930;5.344;2023-08-21T03:31:21;12.05;;;2.92;;
12900;SDS011;6518;50.930;5.344;2023-08-21T03:33:47;8.57;;;2.67;;
12900;SDS011;6518;50.930;5.344;2023-08-21T03:36:14;9.38;;;2.17;;
12900;SDS011;6518;50.930;5.344;2023-08-21T03:38:41;5.00;;;2.65;;
12900;SDS011;6518;50.930;5.344;2023-08-21T03:41:09;6.28;;;2.60;;
12900;SDS011;6518;50.930;5.344;2023-08-21T03:43:37;4.95;;;2.15;;
12900;SDS011;6518;50.930;5.344;2023-08-21T03:46:04;6.00;;;2.20;;
12900;SDS011;6518;50.930;5.344;2023-08-21T03:48:31;5.90;;;2.55;;
12900;SDS011;6518;50.930;5.344;2023-08-21T03:50:57;5.40;;;2.13;;
12900;SDS011;6518;50.930;5.344;2023-08-21T03:53:25;6.90;;;2.22;;
12900;SDS011;6518;50.930;5.344;2023-08-21T03:55:52;5.20;;;2.03;;
12900;SDS011;6518;50.930;5.344;2023-08-21T03:58:21;8.02;;;2.63;;
12900;SDS011;6518;50.930;5.344;2023-08-21T04:00:48;5.60;;;2.17;;
12900;SDS011;6518;50.930;5.344;2023-08-21T04:03:14;10.77;;;2.50;;
12900;SDS011;6518;50.930;5.344;2023-08-21T04:05:41;5.22;;;2.38;;
12900;SDS011;6518;50.930;5.344;2023-08-21T04:08:08;8.75;;;2.65;;
12900;SDS011;6518;50.930;5.344;2023-08-21T04:10:35;7.30;;;2.45;;
12900;SDS011;6518;50.930;5.344;2023-08-21T04:13:03;9.25;;;2.47;;
12900;SDS011;6518;50.930;5.344;2023-08-21T04:15:33;7.53;;;2.60;;
12900;SDS011;6518;50.930;5.344;2023-08-21T04:18:01;8.60;;;2.75;;
12900;SDS011;6518;50.930;5.344;2023-08-21T04:20:28;8.45;;;2.38;;
12900;SDS011;6518;50.930;5.344;2023-08-21T04:22:55;8.30;;;2.67;;
12900;SDS011;6518;50.930;5.344;2023-08-21T04:25:22;11.77;;;2.58;;
12900;SDS011;6518;50.930;5.344;2023-08-21T04:27:49;7.90;;;2.55;;
12900;SDS011;6518;50.930;5.344;2023-08-21T04:30:16;8.32;;;2.40;;
12900;SDS011;6518;50.930;5.344;2023-08-21T04:32:44;8.55;;;2.42;;
12900;SDS011;6518;50.930;5.344;2023-08-21T04:35:11;7.07;;;2.40;;
12900;SDS011;6518;50.930;5.344;2023-08-21T04:37:42;7.10;;;2.65;;
12900;SDS011;6518;50.930;5.344;2023-08-21T04:40:10;11.75;;;2.80;;
12900;SDS011;6518;50.930;5.344;2023-08-21T04:42:38;3.88;;;2.50;;
12900;SDS011;6518;50.930;5.344;2023-08-21T04:45:05;10.75;;;2.92;;
12900;SDS011;6518;50.930;5.344;2023-08-21T04:47:33;9.27;;;2.70;;
12900;SDS011;6518;50.930;5.344;2023-08-21T04:50:01;9.32;;;2.90;;
12900;SDS011;6518;50.930;5.344;2023-08-21T04:52:28;5.80;;;2.22;;
12900;SDS011;6518;50.930;5.344;2023-08-21T04:54:55;7.95;;;2.53;;
12900;SDS011;6518;50.930;5.344;2023-08-21T04:57:22;6.53;;;2.67;;
12900;SDS011;6518;50.930;5.344;2023-08-21T04:59:49;6.78;;;2.55;;
12900;SDS011;6518;50.930;5.344;2023-08-21T05:02:16;9.57;;;2.85;;
12900;SDS011;6518;50.930;5.344;2023-08-21T05:04:43;5.90;;;2.03;;
12900;SDS011;6518;50.930;5.344;2023-08-21T05:07:11;8.13;;;2.58;;
12900;SDS011;6518;50.930;5.344;2023-08-21T05:09:38;5.85;;;2.25;;
12900;SDS011;6518;50.930;5.344;2023-08-21T05:12:05;8.15;;;2.60;;
12900;SDS011;6518;50.930;5.344;2023-08-21T05:14:33;9.32;;;2.60;;
12900;SDS011;6518;50.930;5.344;2023-08-21T05:17:00;6.07;;;2.42;;
12900;SDS011;6518;50.930;5.344;2023-08-21T05:19:27;5.40;;;2.25;;
12900;SDS011;6518;50.930;5.344;2023-08-21T05:21:54;11.70;;;2.72;;
12900;SDS011;6518;50.930;5.344;2023-08-21T05:24:22;5.28;;;2.25;;
12900;SDS011;6518;50.930;5.344;2023-08-21T05:26:49;8.10;;;2.75;;
12900;SDS011;6518;50.930;5.344;2023-08-21T05:29:16;9.20;;;2.40;;
12900;SDS011;6518;50.930;5.344;2023-08-21T05:31:43;8.63;;;2.15;;
12900;SDS011;6518;50.930;5.344;2023-08-21T05:34:10;7.47;;;2.40;;
12900;SDS011;6518;50.930;5.344;2023-08-21T05:36:37;5.53;;;2.10;;
12900;SDS011;6518;50.930;5.344;2023-08-21T05:39:05;5.88;;;2.33;;
12900;SDS011;6518;50.930;5.344;2023-08-21T05:41:33;9.45;;;2.92;;
12900;SDS011;6518;50.930;5.344;2023-08-21T05:44:00;7.20;;;2.40;;
12900;SDS011;6518;50.930;5.344;2023-08-21T05:46:27;9.77;;;2.92;;
12900;SDS011;6518;50.930;5.344;2023-08-21T05:48:54;7.90;;;2.47;;
12900;SDS011;6518;50.930;5.344;2023-08-21T05:51:21;8.93;;;2.40;;
12900;SDS011;6518;50.930;5.344;2023-08-21T05:53:48;5.68;;;2.47;;
12900;SDS011;6518;50.930;5.344;2023-08-21T05:56:15;4.72;;;2.22;;
12900;SDS011;6518;50.930;5.344;2023-08-21T05:58:43;8.15;;;2.40;;
12900;SDS011;6518;50.930;5.344;2023-08-21T06:01:10;6.15;;;2.40;;
12900;SDS011;6518;50.930;5.344;2023-08-21T06:03:37;5.28;;;2.30;;
12900;SDS011;6518;50.930;5.344;2023-08-21T06:06:04;7.53;;;2.60;;
12900;SDS011;6518;50.930;5.344;2023-08-21T06:08:31;8.45;;;2.90;;
12900;SDS011;6518;50.930;5.344;2023-08-21T06:10:58;8.43;;;2.30;;
12900;SDS011;6518;50.930;5.344;2023-08-21T06:13:25;6.75;;;2.60;;
12900;SDS011;6518;50.930;5.344;2023-08-21T06:15:54;9.68;;;2.58;;
12900;SDS011;6518;50.930;5.344;2023-08-21T06:18:20;9.82;;;2.35;;
12900;SDS011;6518;50.930;5.344;2023-08-21T06:20:48;6.13;;;2.20;;
12900;SDS011;6518;50.930;5.344;2023-08-21T06:23:18;8.93;;;2.20;;
12900;SDS011;6518;50.930;5.344;2023-08-21T06:25:47;8.50;;;2.30;;
12900;SDS011;6518;50.930;5.344;2023-08-21T06:28:14;8.45;;;2.22;;
12900;SDS011;6518;50.930;5.344;2023-08-21T06:30:41;8.68;;;2.55;;
12900;SDS011;6518;50.930;5.344;2023-08-21T06:33:09;9.45;;;3.00;;
12900;SDS011;6518;50.930;5.344;2023-08-21T06:35:36;4.85;;;2.08;;
12900;SDS011;6518;50.930;5.344;2023-08-21T06:38:03;6.35;;;2.42;;
12900;SDS011;6518;50.930;5.344;2023-08-21T06:40:30;5.18;;;2.22;;
12900;SDS011;6518;50.930;5.344;2023-08-21T06:42:57;6.60;;;1.98;;
12900;SDS011;6518;50.930;5.344;2023-08-21T06:45:24;6.13;;;2.60;;
12900;SDS011;6518;50.930;5.344;2023-08-21T06:47:53;5.60;;;2.20;;
12900;SDS011;6518;50.930;5.344;2023-08-21T06:50:21;6.32;;;2.22;;
12900;SDS011;6518;50.930;5.344;2023-08-21T06:52:48;6.10;;;2.15;;
12900;SDS011;6518;50.930;5.344;2023-08-21T06:55:15;8.07;;;2.60;;
12900;SDS011;6518;50.930;5.344;2023-08-21T06:57:42;10.50;;;2.78;;
12900;SDS011;6518;50.930;5.344;2023-08-21T07:00:10;11.65;;;3.03;;
12900;SDS011;6518;50.930;5.344;2023-08-21T07:02:37;10.00;;;2.65;;
12900;SDS011;6518;50.930;5.344;2023-08-21T07:05:04;7.70;;;2.60;;
12900;SDS011;6518;50.930;5.344;2023-08-21T07:07:33;6.50;;;2.55;;
12900;SDS011;6518;50.930;5.344;2023-08-21T07:10:00;9.68;;;2.85;;
12900;SDS011;6518;50.930;5.344;2023-08-21T07:12:28;5.53;;;2.10;;
12900;SDS011;6518;50.930;5.344;2023-08-21T07:14:55;5.82;;;2.10;;
12900;SDS011;6518;50.930;5.344;2023-08-21T07:17:22;7.50;;;2.50;;
12900;SDS011;6518;50.930;5.344;2023-08-21T07:19:49;10.57;;;2.70;;
12900;SDS011;6518;50.930;5.344;2023-08-21T07:22:18;8.15;;;2.40;;
12900;SDS011;6518;50.930;5.344;2023-08-21T07:24:46;8.25;;;2.80;;
12900;SDS011;6518;50.930;5.344;2023-08-21T07:27:14;7.00;;;2.53;;
12900;SDS011;6518;50.930;5.344;2023-08-21T07:29:42;6.65;;;2.38;;
12900;SDS011;6518;50.930;5.344;2023-08-21T07:32:09;7.47;;;2.50;;
12900;SDS011;6518;50.930;5.344;2023-08-21T07:34:35;7.85;;;2.70;;
12900;SDS011;6518;50.930;5.344;2023-08-21T07:37:03;5.75;;;2.15;;
12900;SDS011;6518;50.930;5.344;2023-08-21T07:39:30;5.07;;;2.30;;
12900;SDS011;6518;50.930;5.344;2023-08-21T07:41:58;4.70;;;2.58;;
12900;SDS011;6518;50.930;5.344;2023-08-21T07:44:26;6.95;;;2.83;;
12900;SDS011;6518;50.930;5.344;2023-08-21T07:46:53;7.63;;;2.88;;
12900;SDS011;6518;50.930;5.344;2023-08-21T07:49:20;8.07;;;2.45;;
12900;SDS011;6518;50.930;5.344;2023-08-21T07:51:47;7.28;;;2.55;;
12900;SDS011;6518;50.930;5.344;2023-08-21T07:54:13;6.10;;;2.60;;
12900;SDS011;6518;50.930;5.344;2023-08-21T07:56:40;6.53;;;2.42;;
12900;SDS011;6518;50.930;5.344;2023-08-21T07:59:09;11.48;;;2.45;;
12900;SDS011;6518;50.930;5.344;2023-08-21T08:01:36;6.10;;;2.20;;
12900;SDS011;6518;50.930;5.344;2023-08-21T08:04:03;10.23;;;2.50;;
12900;SDS011;6518;50.930;5.344;2023-08-21T08:06:31;8.35;;;2.85;;
12900;SDS011;6518;50.930;5.344;2023-08-21T08:08:58;7.75;;;2.60;;
12900;SDS011;6518;50.930;5.344;2023-08-21T08:11:25;13.65;;;3.13;;
12900;SDS011;6518;50.930;5.344;2023-08-21T08:13:52;6.25;;;2.70;;
12900;SDS011;6518;50.930;5.344;2023-08-21T08:16:20;8.43;;;2.60;;
12900;SDS011;6518;50.930;5.344;2023-08-21T08:18:47;6.65;;;2.53;;
12900;SDS011;6518;50.930;5.344;2023-08-21T08:21:14;4.95;;;2.90;;
12900;SDS011;6518;50.930;5.344;2023-08-21T08:23:42;6.55;;;2.42;;
12900;SDS011;6518;50.930;5.344;2023-08-21T08:26:09;8.00;;;2.40;;
12900;SDS011;6518;50.930;5.344;2023-08-21T08:28:36;8.25;;;2.60;;
12900;SDS011;6518;50.930;5.344;2023-08-21T08:31:03;6.93;;;2.40;;
12900;SDS011;6518;50.930;5.344;2023-08-21T08:33:32;6.35;;;2.45;;
12900;SDS011;6518;50.930;5.344;2023-08-21T08:35:59;4.85;;;1.92;;
12900;SDS011;6518;50.930;5.344;2023-08-21T08:38:26;7.35;;;2.70;;
12900;SDS011;6518;50.930;5.344;2023-08-21T08:40:53;8.73;;;2.33;;
12900;SDS011;6518;50.930;5.344;2023-08-21T08:43:23;6.68;;;2.72;;
12900;SDS011;6518;50.930;5.344;2023-08-21T08:45:51;8.48;;;2.35;;
12900;SDS011;6518;50.930;5.344;2023-08-21T08:48:20;5.75;;;2.30;;
12900;SDS011;6518;50.930;5.344;2023-08-21T08:50:50;8.15;;;2.33;;
12900;SDS011;6518;50.930;5.344;2023-08-21T08:53:18;5.57;;;2.58;;
12900;SDS011;6518;50.930;5.344;2023-08-21T08:55:45;7.40;;;2.50;;
12900;SDS011;6518;50.930;5.344;2023-08-21T08:58:12;10.77;;;2.80;;
12900;SDS011;6518;50.930;5.344;2023-08-21T09:00:39;9.35;;;2.75;;
12900;SDS011;6518;50.930;5.344;2023-08-21T09:03:06;6.65;;;2.30;;
12900;SDS011;6518;50.930;5.344;2023-08-21T09:05:35;7.50;;;2.33;;
12900;SDS011;6518;50.930;5.344;2023-08-21T09:08:10;6.32;;;2.35;;
12900;SDS011;6518;50.930;5.344;2023-08-21T09:10:38;7.97;;;2.33;;
12900;SDS011;6518;50.930;5.344;2023-08-21T09:13:11;6.85;;;2.50;;
12900;SDS011;6518;50.930;5.344;2023-08-21T09:15:40;8.68;;;2.53;;
12900;SDS011;6518;50.930;5.344;2023-08-21T09:18:08;5.97;;;2.10;;
12900;SDS011;6518;50.930;5.344;2023-08-21T09:20:36;8.02;;;2.00;;
12900;SDS011;6518;50.930;5.344;2023-08-21T09:23:03;13.45;;;2.47;;
12900;SDS011;6518;50.930;5.344;2023-08-21T09:25:36;6.03;;;2.22;;
12900;SDS011;6518;50.930;5.344;2023-08-21T09:28:05;7.10;;;2.30;;
12900;SDS011;6518;50.930;5.344;2023-08-21T09:30:46;6.13;;;2.10;;
12900;SDS011;6518;50.930;5.344;2023-08-21T09:33:16;4.10;;;2.00;;
12900;SDS011;6518;50.930;5.344;2023-08-21T09:35:44;6.68;;;1.90;;
12900;SDS011;6518;50.930;5.344;2023-08-21T09:38:11;6.32;;;2.05;;
12900;SDS011;6518;50.930;5.344;2023-08-21T09:40:41;5.65;;;2.15;;
12900;SDS011;6518;50.930;5.344;2023-08-21T09:43:09;8.05;;;2.70;;
12900;SDS011;6518;50.930;5.344;2023-08-21T09:45:38;7.57;;;1.92;;
12900;SDS011;6518;50.930;5.344;2023-08-21T09:48:05;7.43;;;2.05;;
12900;SDS011;6518;50.930;5.344;2023-08-21T09:50:33;3.80;;;1.75;;
12900;SDS011;6518;50.930;5.344;2023-08-21T09:53:01;5.15;;;1.30;;
12900;SDS011;6518;50.930;5.344;2023-08-21T09:55:30;6.03;;;1.65;;
12900;SDS011;6518;50.930;5.344;2023-08-21T09:58:00;6.30;;;1.60;;
12900;SDS011;6518;50.930;5.344;2023-08-21T10:00:30;4.57;;;1.38;;
12900;SDS011;6518;50.930;5.344;2023-08-21T10:02:59;5.72;;;1.70;;
12900;SDS011;6518;50.930;5.344;2023-08-21T10:05:28;7.95;;;1.70;;
12900;SDS011;6518;50.930;5.344;2023-08-21T10:07:56;5.68;;;1.67;;
12900;SDS011;6518;50.930;5.344;2023-08-21T10:10:28;7.03;;;1.90;;
12900;SDS011;6518;50.930;5.344;2023-08-21T10:12:56;4.75;;;1.40;;
12900;SDS011;6518;50.930;5.344;2023-08-21T10:15:25;4.53;;;1.38;;
12900;SDS011;6518;50.930;5.344;2023-08-21T10:17:53;4.85;;;1.63;;
12900;SDS011;6518;50.930;5.344;2023-08-21T10:20:21;4.75;;;1.60;;
12900;SDS011;6518;50.930;5.344;2023-08-21T10:22:49;6.38;;;1.67;;
12900;SDS011;6518;50.930;5.344;2023-08-21T10:25:19;4.57;;;1.90;;
12900;SDS011;6518;50.930;5.344;2023-08-21T10:27:53;4.65;;;1.50;;
12900;SDS011;6518;50.930;5.344;2023-08-21T10:30:22;3.97;;;1.67;;
12900;SDS011;6518;50.930;5.344;2023-08-21T10:32:52;6.82;;;1.88;;
12900;SDS011;6518;50.930;5.344;2023-08-21T10:35:21;6.93;;;1.75;;
12900;SDS011;6518;50.930;5.344;2023-08-21T10:38:09;8.18;;;2.05;;
12900;SDS011;6518;50.930;5.344;2023-08-21T10:40:37;4.25;;;1.60;;
12900;SDS011;6518;50.930;5.344;2023-08-21T10:46:02;8.18;;;2.10;;
12900;SDS011;6518;50.930;5.344;2023-08-21T10:48:30;9.27;;;1.92;;
12900;SDS011;6518;50.930;5.344;2023-08-21T10:50:58;5.78;;;1.70;;
12900;SDS011;6518;50.930;5.344;2023-08-21T10:53:28;7.57;;;1.85;;
12900;SDS011;6518;50.930;5.344;2023-08-21T10:55:55;5.75;;;1.90;;
12900;SDS011;6518;50.930;5.344;2023-08-21T10:58:22;6.10;;;1.70;;
12900;SDS011;6518;50.930;5.344;2023-08-21T11:00:55;3.33;;;1.50;;
12900;SDS011;6518;50.930;5.344;2023-08-21T11:03:23;6.13;;;1.73;;
12900;SDS011;6518;50.930;5.344;2023-08-21T11:06:01;5.35;;;1.80;;
12900;SDS011;6518;50.930;5.344;2023-08-21T11:08:29;7.72;;;1.80;;
12900;SDS011;6518;50.930;5.344;2023-08-21T11:10:57;5.63;;;1.70;;
12900;SDS011;6518;50.930;5.344;2023-08-21T11:13:24;9.43;;;2.15;;
12900;SDS011;6518;50.930;5.344;2023-08-21T11:15:57;7.15;;;1.70;;
12900;SDS011;6518;50.930;5.344;2023-08-21T11:18:29;7.00;;;1.92;;
12900;SDS011;6518;50.930;5.344;2023-08-21T11:21:04;4.97;;;2.03;;
12900;SDS011;6518;50.930;5.344;2023-08-21T11:23:35;2.95;;;1.50;;
12900;SDS011;6518;50.930;5.344;2023-08-21T11:26:02;7.57;;;1.52;;
12900;SDS011;6518;50.930;5.344;2023-08-21T11:28:30;6.13;;;1.80;;
12900;SDS011;6518;50.930;5.344;2023-08-21T11:30:58;5.95;;;2.00;;
12900;SDS011;6518;50.930;5.344;2023-08-21T11:33:26;5.55;;;1.65;;
12900;SDS011;6518;50.930;5.344;2023-08-21T11:35:53;3.80;;;1.45;;
12900;SDS011;6518;50.930;5.344;2023-08-21T11:38:24;4.07;;;1.75;;
12900;SDS011;6518;50.930;5.344;2023-08-21T11:40:53;5.97;;;1.77;;
12900;SDS011;6518;50.930;5.344;2023-08-21T11:43:20;4.85;;;1.60;;
12900;SDS011;6518;50.930;5.344;2023-08-21T11:45:48;5.30;;;1.83;;
12900;SDS011;6518;50.930;5.344;2023-08-21T11:48:15;4.47;;;1.50;;
12900;SDS011;6518;50.930;5.344;2023-08-21T11:50:45;5.03;;;1.80;;
12900;SDS011;6518;50.930;5.344;2023-08-21T11:53:15;6.38;;;1.70;;
12900;SDS011;6518;50.930;5.344;2023-08-21T11:55:55;4.40;;;1.55;;
12900;SDS011;6518;50.930;5.344;2023-08-21T11:58:22;4.60;;;1.65;;
12900;SDS011;6518;50.930;5.344;2023-08-21T12:00:52;5.20;;;1.70;;
12900;SDS011;6518;50.930;5.344;2023-08-21T12:03:19;4.00;;;1.50;;
12900;SDS011;6518;50.930;5.344;2023-08-21T12:05:46;5.07;;;1.70;;
12900;SDS011;6518;50.930;5.344;2023-08-21T12:08:13;5.32;;;1.77;;
12900;SDS011;6518;50.930;5.344;2023-08-21T12:10:41;3.17;;;1.30;;
12900;SDS011;6518;50.930;5.344;2023-08-21T12:13:08;5.13;;;1.83;;
12900;SDS011;6518;50.930;5.344;2023-08-21T12:15:35;6.90;;;2.10;;
12900;SDS011;6518;50.930;5.344;2023-08-21T12:18:02;7.63;;;1.90;;
12900;SDS011;6518;50.930;5.344;2023-08-21T12:20:30;3.15;;;1.38;;
12900;SDS011;6518;50.930;5.344;2023-08-21T12:22:57;5.00;;;1.63;;
12900;SDS011;6518;50.930;5.344;2023-08-21T12:25:24;7.60;;;1.88;;
12900;SDS011;6518;50.930;5.344;2023-08-21T12:27:56;7.80;;;1.63;;
12900;SDS011;6518;50.930;5.344;2023-08-21T12:30:24;5.80;;;1.70;;
12900;SDS011;6518;50.930;5.344;2023-08-21T12:32:51;4.35;;;1.50;;
12900;SDS011;6518;50.930;5.344;2023-08-21T12:35:18;6.40;;;1.70;;
12900;SDS011;6518;50.930;5.344;2023-08-21T12:37:45;4.82;;;1.77;;
12900;SDS011;6518;50.930;5.344;2023-08-21T12:40:12;5.75;;;1.70;;
12900;SDS011;6518;50.930;5.344;2023-08-21T12:42:39;4.65;;;1.80;;
12900;SDS011;6518;50.930;5.344;2023-08-21T12:45:08;5.82;;;1.70;;
12900;SDS011;6518;50.930;5.344;2023-08-21T12:47:36;8.55;;;2.13;;
12900;SDS011;6518;50.930;5.344;2023-08-21T12:50:03;4.93;;;1.80;;
12900;SDS011;6518;50.930;5.344;2023-08-21T12:52:31;4.97;;;1.52;;
12900;SDS011;6518;50.930;5.344;2023-08-21T12:54:58;3.75;;;1.50;;
12900;SDS011;6518;50.930;5.344;2023-08-21T12:57:28;5.38;;;1.83;;
12900;SDS011;6518;50.930;5.344;2023-08-21T12:59:55;4.57;;;2.00;;
12900;SDS011;6518;50.930;5.344;2023-08-21T13:02:23;6.82;;;1.67;;
12900;SDS011;6518;50.930;5.344;2023-08-21T13:04:52;3.97;;;1.48;;
12900;SDS011;6518;50.930;5.344;2023-08-21T13:07:19;6.13;;;1.77;;
12900;SDS011;6518;50.930;5.344;2023-08-21T13:09:46;5.07;;;1.85;;
12900;SDS011;6518;50.930;5.344;2023-08-21T13:12:13;8.95;;;1.95;;
12900;SDS011;6518;50.930;5.344;2023-08-21T13:14:40;4.18;;;1.60;;
12900;SDS011;6518;50.930;5.344;2023-08-21T13:17:06;4.97;;;1.60;;
12900;SDS011;6518;50.930;5.344;2023-08-21T13:19:35;3.10;;;1.55;;
12900;SDS011;6518;50.930;5.344;2023-08-21T13:22:02;5.30;;;1.52;;
12900;SDS011;6518;50.930;5.344;2023-08-21T13:24:29;4.45;;;1.52;;
12900;SDS011;6518;50.930;5.344;2023-08-21T13:26:57;5.22;;;1.83;;
12900;SDS011;6518;50.930;5.344;2023-08-21T13:29:24;6.45;;;1.92;;
12900;SDS011;6518;50.930;5.344;2023-08-21T13:31:51;9.77;;;1.83;;
12900;SDS011;6518;50.930;5.344;2023-08-21T13:34:18;7.20;;;2.00;;
12900;SDS011;6518;50.930;5.344;2023-08-21T13:36:46;4.13;;;1.70;;
12900;SDS011;6518;50.930;5.344;2023-08-21T13:39:13;4.68;;;1.58;;
12900;SDS011;6518;50.930;5.344;2023-08-21T13:41:40;6.80;;;1.90;;
12900;SDS011;6518;50.930;5.344;2023-08-21T13:44:07;5.25;;;1.67;;
12900;SDS011;6518;50.930;5.344;2023-08-21T13:46:34;3.17;;;1.35;;
12900;SDS011;6518;50.930;5.344;2023-08-21T13:49:01;4.78;;;1.67;;
12900;SDS011;6518;50.930;5.344;2023-08-21T13:51:28;4.78;;;1.58;;
12900;SDS011;6518;50.930;5.344;2023-08-21T13:53:56;6.55;;;2.00;;
12900;SDS011;6518;50.930;5.344;2023-08-21T13:56:23;3.80;;;1.70;;
12900;SDS011;6518;50.930;5.344;2023-08-21T13:58:50;6.13;;;1.95;;
12900;SDS011;6518;50.930;5.344;2023-08-21T14:01:17;4.35;;;1.90;;
12900;SDS011;6518;50.930;5.344;2023-08-21T14:03:44;6.78;;;2.30;;
12900;SDS011;6518;50.930;5.344;2023-08-21T14:06:11;8.23;;;2.10;;
12900;SDS011;6518;50.930;5.344;2023-08-21T14:08:38;5.07;;;2.08;;
12900;SDS011;6518;50.930;5.344;2023-08-21T14:11:06;6.20;;;1.70;;
12900;SDS011;6518;50.930;5.344;2023-08-21T14:13:33;4.03;;;1.45;;
12900;SDS011;6518;50.930;5.344;2023-08-21T14:16:00;6.28;;;2.13;;
12900;SDS011;6518;50.930;5.344;2023-08-21T14:18:28;6.38;;;1.58;;
12900;SDS011;6518;50.930;5.344;2023-08-21T14:20:55;5.63;;;1.70;;
12900;SDS011;6518;50.930;5.344;2023-08-21T14:23:22;5.45;;;1.90;;
12900;SDS011;6518;50.930;5.344;2023-08-21T14:25:49;6.28;;;1.80;;
12900;SDS011;6518;50.930;5.344;2023-08-21T14:28:18;4.93;;;1.67;;
12900;SDS011;6518;50.930;5.344;2023-08-21T14:30:45;8.05;;;1.85;;
12900;SDS011;6518;50.930;5.344;2023-08-21T14:33:12;3.63;;;1.77;;
12900;SDS011;6518;50.930;5.344;2023-08-21T14:35:39;3.40;;;1.40;;
12900;SDS011;6518;50.930;5.344;2023-08-21T14:38:06;4.03;;;1.88;;
12900;SDS011;6518;50.930;5.344;2023-08-21T14:40:33;5.75;;;1.60;;
12900;SDS011;6518;50.930;5.344;2023-08-21T14:43:00;3.97;;;1.38;;
12900;SDS011;6518;50.930;5.344;2023-08-21T14:45:28;5.40;;;1.52;;
12900;SDS011;6518;50.930;5.344;2023-08-21T14:47:55;3.78;;;1.40;;
12900;SDS011;6518;50.930;5.344;2023-08-21T14:50:22;4.30;;;1.80;;
12900;SDS011;6518;50.930;5.344;2023-08-21T14:52:49;2.92;;;1.50;;
12900;SDS011;6518;50.930;5.344;2023-08-21T14:55:16;4.88;;;1.67;;
12900;SDS011;6518;50.930;5.344;2023-08-21T14:57:43;3.05;;;1.50;;
12900;SDS011;6518;50.930;5.344;2023-08-21T15:00:11;6.60;;;1.60;;
12900;SDS011;6518;50.930;5.344;2023-08-21T15:02:43;4.20;;;1.80;;
12900;SDS011;6518;50.930;5.344;2023-08-21T15:05:10;3.03;;;1.50;;
12900;SDS011;6518;50.930;5.344;2023-08-21T15:07:41;2.72;;;1.40;;
12900;SDS011;6518;50.930;5.344;2023-08-21T15:10:09;8.00;;;1.80;;